sensor_id;sensor_type;location;lat;lon;timestamp;P1;durP1;ratioP1;P2;durP2;ratioP2
21089;SDS011;10703;51.020;6.128;2023-04-24T00:02:17;8.47;;;7.80;;
21089;SDS011;10703;51.020;6.128;2023-04-24T00:04:45;8.77;;;8.07;;
21089;SDS011;10703;51.020;6.128;2023-04-24T00:07:11;9.50;;;8.70;;
21089;SDS011;10703;51.020;6.128;2023-04-24T00:09:39;8.83;;;8.03;;
21089;SDS011;10703;51.020;6.128;2023-04-24T00:12:06;7.37;;;6.70;;
21089;SDS011;10703;51.020;6.128;2023-04-24T00:14:32;6.83;;;6.33;;
21089;SDS011;10703;51.020;6.128;2023-04-24T00:17:01;7.20;;;6.60;;
21089;SDS011;10703;51.020;6.128;2023-04-24T00:19:28;17.50;;;7.40;;
21089;SDS011;10703;51.020;6.128;2023-04-24T00:21:55;8.40;;;7.70;;
21089;SDS011;10703;51.020;6.128;2023-04-24T00:24:21;7.50;;;6.90;;
21089;SDS011;10703;51.020;6.128;2023-04-24T00:26:48;7.70;;;7.07;;
21089;SDS011;10703;51.020;6.128;2023-04-24T00:29:15;7.33;;;6.73;;
21089;SDS011;10703;51.020;6.128;2023-04-24T00:31:41;8.67;;;7.80;;
21089;SDS011;10703;51.020;6.128;2023-04-24T00:34:08;9.23;;;8.33;;
21089;SDS011;10703;51.020;6.128;2023-04-24T00:36:34;8.60;;;7.77;;
21089;SDS011;10703;51.020;6.128;2023-04-24T00:39:01;8.10;;;7.37;;
21089;SDS011;10703;51.020;6.128;2023-04-24T00:41:28;7.17;;;6.67;;
21089;SDS011;10703;51.020;6.128;2023-04-24T00:43:55;8.27;;;7.57;;
21089;SDS011;10703;51.020;6.128;2023-04-24T00:46:22;8.03;;;7.43;;
21089;SDS011;10703;51.020;6.128;2023-04-24T00:48:48;8.50;;;7.80;;
21089;SDS011;10703;51.020;6.128;2023-04-24T00:51:16;9.83;;;8.83;;
21089;SDS011;10703;51.020;6.128;2023-04-24T00:53:43;9.57;;;8.67;;
21089;SDS011;10703;51.020;6.128;2023-04-24T00:56:09;10.37;;;9.37;;
21089;SDS011;10703;51.020;6.128;2023-04-24T00:58:36;9.43;;;7.97;;
21089;SDS011;10703;51.020;6.128;2023-04-24T01:01:03;9.50;;;7.60;;
21089;SDS011;10703;51.020;6.128;2023-04-24T01:03:33;10.97;;;9.17;;
21089;SDS011;10703;51.020;6.128;2023-04-24T01:06:00;9.80;;;7.67;;
21089;SDS011;10703;51.020;6.128;2023-04-24T01:08:27;10.27;;;9.20;;
21089;SDS011;10703;51.020;6.128;2023-04-24T01:10:54;10.87;;;9.77;;
21089;SDS011;10703;51.020;6.128;2023-04-24T01:13:22;11.73;;;9.37;;
21089;SDS011;10703;51.020;6.128;2023-04-24T01:15:49;9.93;;;8.50;;
21089;SDS011;10703;51.020;6.128;2023-04-24T01:18:16;11.93;;;9.80;;
21089;SDS011;10703;51.020;6.128;2023-04-24T01:20:42;10.13;;;9.03;;
21089;SDS011;10703;51.020;6.128;2023-04-24T01:23:12;9.93;;;9.00;;
21089;SDS011;10703;51.020;6.128;2023-04-24T01:25:40;14.10;;;10.23;;
21089;SDS011;10703;51.020;6.128;2023-04-24T01:28:07;17.07;;;12.07;;
21089;SDS011;10703;51.020;6.128;2023-04-24T01:30:33;11.67;;;10.50;;
21089;SDS011;10703;51.020;6.128;2023-04-24T01:33:00;14.87;;;11.70;;
21089;SDS011;10703;51.020;6.128;2023-04-24T01:35:27;12.40;;;10.07;;
21089;SDS011;10703;51.020;6.128;2023-04-24T01:37:53;15.53;;;9.63;;
21089;SDS011;10703;51.020;6.128;2023-04-24T01:40:20;12.47;;;10.93;;
21089;SDS011;10703;51.020;6.128;2023-04-24T01:42:47;10.40;;;9.33;;
21089;SDS011;10703;51.020;6.128;2023-04-24T01:45:13;10.57;;;9.50;;
21089;SDS011;10703;51.020;6.128;2023-04-24T01:47:40;19.80;;;12.40;;
21089;SDS011;10703;51.020;6.128;2023-04-24T01:50:08;12.53;;;11.23;;
21089;SDS011;10703;51.020;6.128;2023-04-24T01:52:35;16.80;;;11.60;;
21089;SDS011;10703;51.020;6.128;2023-04-24T01:55:05;12.47;;;9.87;;
21089;SDS011;10703;51.020;6.128;2023-04-24T01:57:33;16.47;;;10.77;;
21089;SDS011;10703;51.020;6.128;2023-04-24T01:59:59;13.90;;;11.80;;
21089;SDS011;10703;51.020;6.128;2023-04-24T02:02:26;21.60;;;14.30;;
21089;SDS011;10703;51.020;6.128;2023-04-24T02:04:54;15.37;;;12.57;;
21089;SDS011;10703;51.020;6.128;2023-04-24T02:07:21;21.50;;;17.37;;
21089;SDS011;10703;51.020;6.128;2023-04-24T02:09:47;14.80;;;10.70;;
21089;SDS011;10703;51.020;6.128;2023-04-24T02:12:14;16.80;;;12.73;;
21089;SDS011;10703;51.020;6.128;2023-04-24T02:14:43;13.53;;;11.90;;
21089;SDS011;10703;51.020;6.128;2023-04-24T02:17:10;10.97;;;9.93;;
21089;SDS011;10703;51.020;6.128;2023-04-24T02:19:39;13.03;;;11.70;;
21089;SDS011;10703;51.020;6.128;2023-04-24T02:22:06;10.13;;;8.70;;
21089;SDS011;10703;51.020;6.128;2023-04-24T02:24:32;19.87;;;12.23;;
21089;SDS011;10703;51.020;6.128;2023-04-24T02:26:59;13.40;;;12.00;;
21089;SDS011;10703;51.020;6.128;2023-04-24T02:29:26;13.43;;;12.03;;
21089;SDS011;10703;51.020;6.128;2023-04-24T02:31:52;12.80;;;9.90;;
21089;SDS011;10703;51.020;6.128;2023-04-24T02:34:19;14.37;;;12.43;;
21089;SDS011;10703;51.020;6.128;2023-04-24T02:36:46;10.50;;;9.43;;
21089;SDS011;10703;51.020;6.128;2023-04-24T02:39:12;19.10;;;11.87;;
21089;SDS011;10703;51.020;6.128;2023-04-24T02:41:39;12.30;;;11.10;;
21089;SDS011;10703;51.020;6.128;2023-04-24T02:44:06;17.73;;;11.80;;
21089;SDS011;10703;51.020;6.128;2023-04-24T02:46:32;12.97;;;10.63;;
21089;SDS011;10703;51.020;6.128;2023-04-24T02:48:59;13.47;;;10.00;;
21089;SDS011;10703;51.020;6.128;2023-04-24T02:51:25;10.73;;;9.83;;
21089;SDS011;10703;51.020;6.128;2023-04-24T02:53:52;10.23;;;9.17;;
21089;SDS011;10703;51.020;6.128;2023-04-24T02:56:19;12.47;;;10.93;;
21089;SDS011;10703;51.020;6.128;2023-04-24T02:58:46;12.57;;;11.30;;
21089;SDS011;10703;51.020;6.128;2023-04-24T03:01:12;14.03;;;9.33;;
21089;SDS011;10703;51.020;6.128;2023-04-24T03:03:39;11.30;;;10.13;;
21089;SDS011;10703;51.020;6.128;2023-04-24T03:06:06;10.10;;;9.20;;
21089;SDS011;10703;51.020;6.128;2023-04-24T03:08:34;11.03;;;9.90;;
21089;SDS011;10703;51.020;6.128;2023-04-24T03:11:01;11.37;;;10.20;;
21089;SDS011;10703;51.020;6.128;2023-04-24T03:13:27;11.20;;;10.17;;
21089;SDS011;10703;51.020;6.128;2023-04-24T03:15:54;11.23;;;10.13;;
21089;SDS011;10703;51.020;6.128;2023-04-24T03:18:21;18.40;;;11.80;;
21089;SDS011;10703;51.020;6.128;2023-04-24T03:20:47;11.10;;;9.37;;
21089;SDS011;10703;51.020;6.128;2023-04-24T03:23:14;11.53;;;9.63;;
21089;SDS011;10703;51.020;6.128;2023-04-24T03:25:41;13.17;;;11.47;;
21089;SDS011;10703;51.020;6.128;2023-04-24T03:28:08;12.17;;;10.90;;
21089;SDS011;10703;51.020;6.128;2023-04-24T03:30:35;11.13;;;9.93;;
21089;SDS011;10703;51.020;6.128;2023-04-24T03:33:02;10.03;;;9.03;;
21089;SDS011;10703;51.020;6.128;2023-04-24T03:35:28;11.40;;;10.30;;
21089;SDS011;10703;51.020;6.128;2023-04-24T03:37:55;12.63;;;10.43;;
21089;SDS011;10703;51.020;6.128;2023-04-24T03:40:21;9.87;;;9.07;;
21089;SDS011;10703;51.020;6.128;2023-04-24T03:42:48;15.10;;;12.00;;
21089;SDS011;10703;51.020;6.128;2023-04-24T03:45:14;11.00;;;10.00;;
21089;SDS011;10703;51.020;6.128;2023-04-24T03:47:41;9.87;;;9.07;;
21089;SDS011;10703;51.020;6.128;2023-04-24T03:50:08;9.77;;;8.87;;
21089;SDS011;10703;51.020;6.128;2023-04-24T03:52:38;11.07;;;9.30;;
21089;SDS011;10703;51.020;6.128;2023-04-24T03:55:04;10.53;;;9.43;;
21089;SDS011;10703;51.020;6.128;2023-04-24T03:57:32;13.93;;;12.23;;
21089;SDS011;10703;51.020;6.128;2023-04-24T03:59:59;13.47;;;11.07;;
21089;SDS011;10703;51.020;6.128;2023-04-24T04:02:25;14.37;;;11.20;;
21089;SDS011;10703;51.020;6.128;2023-04-24T04:04:52;10.53;;;9.63;;
21089;SDS011;10703;51.020;6.128;2023-04-24T04:07:19;10.90;;;9.93;;
21089;SDS011;10703;51.020;6.128;2023-04-24T04:09:46;13.70;;;11.37;;
21089;SDS011;10703;51.020;6.128;2023-04-24T04:12:12;10.80;;;9.80;;
21089;SDS011;10703;51.020;6.128;2023-04-24T04:14:39;11.73;;;10.60;;
21089;SDS011;10703;51.020;6.128;2023-04-24T04:17:05;12.07;;;9.53;;
21089;SDS011;10703;51.020;6.128;2023-04-24T04:19:32;10.63;;;9.27;;
21089;SDS011;10703;51.020;6.128;2023-04-24T04:21:58;12.17;;;9.83;;
21089;SDS011;10703;51.020;6.128;2023-04-24T04:24:25;9.27;;;8.50;;
21089;SDS011;10703;51.020;6.128;2023-04-24T04:26:52;11.97;;;9.17;;
21089;SDS011;10703;51.020;6.128;2023-04-24T04:29:22;10.90;;;8.77;;
21089;SDS011;10703;51.020;6.128;2023-04-24T04:31:49;9.37;;;8.63;;
21089;SDS011;10703;51.020;6.128;2023-04-24T04:34:16;10.50;;;9.47;;
21089;SDS011;10703;51.020;6.128;2023-04-24T04:36:43;10.90;;;9.13;;
21089;SDS011;10703;51.020;6.128;2023-04-24T04:39:10;11.90;;;10.13;;
21089;SDS011;10703;51.020;6.128;2023-04-24T04:41:36;11.73;;;10.53;;
21089;SDS011;10703;51.020;6.128;2023-04-24T04:44:03;9.93;;;9.00;;
21089;SDS011;10703;51.020;6.128;2023-04-24T04:46:30;10.73;;;9.43;;
21089;SDS011;10703;51.020;6.128;2023-04-24T04:48:59;12.07;;;9.93;;
21089;SDS011;10703;51.020;6.128;2023-04-24T04:51:27;12.43;;;10.47;;
21089;SDS011;10703;51.020;6.128;2023-04-24T04:53:53;9.90;;;8.87;;
21089;SDS011;10703;51.020;6.128;2023-04-24T04:56:20;13.27;;;10.43;;
21089;SDS011;10703;51.020;6.128;2023-04-24T04:58:47;9.87;;;8.97;;
21089;SDS011;10703;51.020;6.128;2023-04-24T05:01:14;10.80;;;9.67;;
21089;SDS011;10703;51.020;6.128;2023-04-24T05:03:41;12.63;;;9.17;;
21089;SDS011;10703;51.020;6.128;2023-04-24T05:06:07;7.97;;;7.37;;
21089;SDS011;10703;51.020;6.128;2023-04-24T05:08:34;12.80;;;10.23;;
21089;SDS011;10703;51.020;6.128;2023-04-24T05:11:01;8.87;;;8.07;;
21089;SDS011;10703;51.020;6.128;2023-04-24T05:13:27;8.90;;;8.07;;
21089;SDS011;10703;51.020;6.128;2023-04-24T05:16:05;10.43;;;8.93;;
21089;SDS011;10703;51.020;6.128;2023-04-24T05:18:32;9.97;;;8.77;;
21089;SDS011;10703;51.020;6.128;2023-04-24T05:20:58;9.87;;;8.97;;
21089;SDS011;10703;51.020;6.128;2023-04-24T05:23:25;9.97;;;8.97;;
21089;SDS011;10703;51.020;6.128;2023-04-24T05:25:51;9.27;;;8.37;;
21089;SDS011;10703;51.020;6.128;2023-04-24T05:28:18;10.30;;;8.63;;
21089;SDS011;10703;51.020;6.128;2023-04-24T05:30:44;8.87;;;7.97;;
21089;SDS011;10703;51.020;6.128;2023-04-24T05:33:11;12.00;;;8.57;;
21089;SDS011;10703;51.020;6.128;2023-04-24T05:35:38;8.53;;;7.83;;
21089;SDS011;10703;51.020;6.128;2023-04-24T05:38:11;8.27;;;7.57;;
21089;SDS011;10703;51.020;6.128;2023-04-24T05:40:39;9.83;;;8.93;;
21089;SDS011;10703;51.020;6.128;2023-04-24T05:43:05;10.13;;;8.97;;
21089;SDS011;10703;51.020;6.128;2023-04-24T05:45:32;10.20;;;8.13;;
21089;SDS011;10703;51.020;6.128;2023-04-24T05:47:58;7.97;;;7.37;;
21089;SDS011;10703;51.020;6.128;2023-04-24T05:50:25;8.63;;;7.80;;
21089;SDS011;10703;51.020;6.128;2023-04-24T05:52:52;9.13;;;8.23;;
21089;SDS011;10703;51.020;6.128;2023-04-24T05:55:19;9.07;;;8.27;;
21089;SDS011;10703;51.020;6.128;2023-04-24T05:57:46;8.13;;;7.33;;
21089;SDS011;10703;51.020;6.128;2023-04-24T06:00:13;9.73;;;8.83;;
21089;SDS011;10703;51.020;6.128;2023-04-24T06:02:40;8.93;;;8.03;;
21089;SDS011;10703;51.020;6.128;2023-04-24T06:05:06;9.00;;;8.10;;
21089;SDS011;10703;51.020;6.128;2023-04-24T06:07:34;7.53;;;6.93;;
21089;SDS011;10703;51.020;6.128;2023-04-24T06:10:01;8.20;;;7.47;;
21089;SDS011;10703;51.020;6.128;2023-04-24T06:12:28;8.77;;;8.07;;
21089;SDS011;10703;51.020;6.128;2023-04-24T06:14:54;12.57;;;7.77;;
21089;SDS011;10703;51.020;6.128;2023-04-24T06:17:24;7.87;;;7.17;;
21089;SDS011;10703;51.020;6.128;2023-04-24T06:19:51;7.03;;;6.53;;
21089;SDS011;10703;51.020;6.128;2023-04-24T06:22:17;8.53;;;7.83;;
21089;SDS011;10703;51.020;6.128;2023-04-24T06:24:44;9.33;;;8.53;;
21089;SDS011;10703;51.020;6.128;2023-04-24T06:27:10;8.80;;;8.10;;
21089;SDS011;10703;51.020;6.128;2023-04-24T06:29:39;6.83;;;6.23;;
21089;SDS011;10703;51.020;6.128;2023-04-24T06:32:05;6.63;;;6.13;;
21089;SDS011;10703;51.020;6.128;2023-04-24T06:34:32;6.33;;;5.87;;
21089;SDS011;10703;51.020;6.128;2023-04-24T06:37:00;7.33;;;6.77;;
21089;SDS011;10703;51.020;6.128;2023-04-24T06:39:26;6.70;;;6.13;;
21089;SDS011;10703;51.020;6.128;2023-04-24T06:41:53;7.03;;;6.57;;
21089;SDS011;10703;51.020;6.128;2023-04-24T06:44:19;8.03;;;7.43;;
21089;SDS011;10703;51.020;6.128;2023-04-24T06:46:46;7.43;;;6.83;;
21089;SDS011;10703;51.020;6.128;2023-04-24T06:49:12;7.37;;;6.67;;
21089;SDS011;10703;51.020;6.128;2023-04-24T06:51:41;8.65;;;7.50;;
21089;SDS011;10703;51.020;6.128;2023-04-24T06:54:08;9.27;;;7.80;;
21089;SDS011;10703;51.020;6.128;2023-04-24T06:56:35;7.00;;;6.50;;
21089;SDS011;10703;51.020;6.128;2023-04-24T06:59:01;6.53;;;5.93;;
21089;SDS011;10703;51.020;6.128;2023-04-24T07:01:28;7.50;;;6.90;;
21089;SDS011;10703;51.020;6.128;2023-04-24T07:03:55;7.13;;;6.63;;
21089;SDS011;10703;51.020;6.128;2023-04-24T07:06:21;7.40;;;6.80;;
21089;SDS011;10703;51.020;6.128;2023-04-24T07:08:49;7.70;;;7.00;;
21089;SDS011;10703;51.020;6.128;2023-04-24T07:11:16;7.50;;;6.90;;
21089;SDS011;10703;51.020;6.128;2023-04-24T07:13:42;12.37;;;8.80;;
21089;SDS011;10703;51.020;6.128;2023-04-24T07:16:10;8.07;;;7.43;;
21089;SDS011;10703;51.020;6.128;2023-04-24T07:18:37;9.93;;;8.13;;
21089;SDS011;10703;51.020;6.128;2023-04-24T07:21:05;11.10;;;7.90;;
21089;SDS011;10703;51.020;6.128;2023-04-24T07:23:33;10.03;;;7.97;;
21089;SDS011;10703;51.020;6.128;2023-04-24T07:25:59;8.00;;;7.37;;
21089;SDS011;10703;51.020;6.128;2023-04-24T07:28:26;9.00;;;8.27;;
21089;SDS011;10703;51.020;6.128;2023-04-24T07:30:52;7.60;;;6.93;;
21089;SDS011;10703;51.020;6.128;2023-04-24T07:33:20;8.07;;;7.37;;
21089;SDS011;10703;51.020;6.128;2023-04-24T07:35:46;7.33;;;6.67;;
21089;SDS011;10703;51.020;6.128;2023-04-24T07:38:13;6.97;;;6.47;;
21089;SDS011;10703;51.020;6.128;2023-04-24T07:40:40;8.00;;;7.30;;
21089;SDS011;10703;51.020;6.128;2023-04-24T07:43:06;7.87;;;7.27;;
21089;SDS011;10703;51.020;6.128;2023-04-24T07:45:33;7.60;;;7.00;;
21089;SDS011;10703;51.020;6.128;2023-04-24T07:48:03;6.40;;;6.00;;
21089;SDS011;10703;51.020;6.128;2023-04-24T07:50:30;7.47;;;6.87;;
21089;SDS011;10703;51.020;6.128;2023-04-24T07:52:56;7.40;;;6.60;;
21089;SDS011;10703;51.020;6.128;2023-04-24T07:55:23;10.70;;;7.20;;
21089;SDS011;10703;51.020;6.128;2023-04-24T07:57:53;19.17;;;7.17;;
21089;SDS011;10703;51.020;6.128;2023-04-24T08:00:20;6.83;;;6.23;;
21089;SDS011;10703;51.020;6.128;2023-04-24T08:02:46;8.33;;;7.07;;
21089;SDS011;10703;51.020;6.128;2023-04-24T08:05:13;8.43;;;7.37;;
21089;SDS011;10703;51.020;6.128;2023-04-24T08:07:40;7.63;;;7.03;;
21089;SDS011;10703;51.020;6.128;2023-04-24T08:10:09;8.60;;;7.90;;
21089;SDS011;10703;51.020;6.128;2023-04-24T08:12:37;8.70;;;7.80;;
21089;SDS011;10703;51.020;6.128;2023-04-24T08:15:04;8.37;;;7.60;;
21089;SDS011;10703;51.020;6.128;2023-04-24T08:17:31;8.80;;;8.00;;
21089;SDS011;10703;51.020;6.128;2023-04-24T08:19:58;13.93;;;9.50;;
21089;SDS011;10703;51.020;6.128;2023-04-24T08:22:27;9.17;;;7.70;;
21089;SDS011;10703;51.020;6.128;2023-04-24T08:24:54;9.07;;;8.17;;
21089;SDS011;10703;51.020;6.128;2023-04-24T08:27:22;9.37;;;8.47;;
21089;SDS011;10703;51.020;6.128;2023-04-24T08:29:49;11.53;;;9.97;;
21089;SDS011;10703;51.020;6.128;2023-04-24T08:32:16;9.37;;;8.33;;
21089;SDS011;10703;51.020;6.128;2023-04-24T08:34:43;12.00;;;9.30;;
21089;SDS011;10703;51.020;6.128;2023-04-24T08:37:09;11.00;;;8.83;;
21089;SDS011;10703;51.020;6.128;2023-04-24T08:39:36;10.00;;;9.00;;
21089;SDS011;10703;51.020;6.128;2023-04-24T08:42:04;10.87;;;8.53;;
21089;SDS011;10703;51.020;6.128;2023-04-24T08:44:34;11.17;;;9.33;;
21089;SDS011;10703;51.020;6.128;2023-04-24T08:47:02;8.93;;;8.03;;
21089;SDS011;10703;51.020;6.128;2023-04-24T08:49:29;9.57;;;8.60;;
21089;SDS011;10703;51.020;6.128;2023-04-24T08:51:56;7.53;;;6.83;;
21089;SDS011;10703;51.020;6.128;2023-04-24T08:54:24;11.70;;;9.10;;
21089;SDS011;10703;51.020;6.128;2023-04-24T08:56:51;24.47;;;10.03;;
21089;SDS011;10703;51.020;6.128;2023-04-24T08:59:20;12.83;;;10.27;;
21089;SDS011;10703;51.020;6.128;2023-04-24T09:01:48;12.73;;;8.57;;
21089;SDS011;10703;51.020;6.128;2023-04-24T09:04:15;12.07;;;10.53;;
21089;SDS011;10703;51.020;6.128;2023-04-24T09:06:46;9.10;;;7.90;;
21089;SDS011;10703;51.020;6.128;2023-04-24T09:09:15;11.67;;;8.47;;
21089;SDS011;10703;51.020;6.128;2023-04-24T09:11:42;12.27;;;9.53;;
21089;SDS011;10703;51.020;6.128;2023-04-24T09:14:09;11.43;;;8.60;;
21089;SDS011;10703;51.020;6.128;2023-04-24T09:16:36;10.70;;;9.63;;
21089;SDS011;10703;51.020;6.128;2023-04-24T09:19:03;11.73;;;8.73;;
21089;SDS011;10703;51.020;6.128;2023-04-24T09:21:33;10.60;;;7.87;;
21089;SDS011;10703;51.020;6.128;2023-04-24T09:24:01;8.60;;;6.83;;
21089;SDS011;10703;51.020;6.128;2023-04-24T09:26:30;6.93;;;6.33;;
21089;SDS011;10703;51.020;6.128;2023-04-24T09:28:58;8.27;;;7.53;;
21089;SDS011;10703;51.020;6.128;2023-04-24T09:31:26;11.57;;;8.87;;
21089;SDS011;10703;51.020;6.128;2023-04-24T09:33:58;8.93;;;7.53;;
21089;SDS011;10703;51.020;6.128;2023-04-24T09:36:34;10.00;;;7.57;;
21089;SDS011;10703;51.020;6.128;2023-04-24T09:39:08;8.23;;;7.50;;
21089;SDS011;10703;51.020;6.128;2023-04-24T09:41:50;7.07;;;6.37;;
21089;SDS011;10703;51.020;6.128;2023-04-24T09:44:19;8.13;;;7.43;;
21089;SDS011;10703;51.020;6.128;2023-04-24T09:46:54;8.50;;;7.70;;
21089;SDS011;10703;51.020;6.128;2023-04-24T09:49:25;7.37;;;6.57;;
21089;SDS011;10703;51.020;6.128;2023-04-24T09:52:02;8.53;;;7.73;;
21089;SDS011;10703;51.020;6.128;2023-04-24T09:54:29;8.37;;;7.57;;
21089;SDS011;10703;51.020;6.128;2023-04-24T09:56:57;7.50;;;6.73;;
21089;SDS011;10703;51.020;6.128;2023-04-24T09:59:23;7.50;;;6.20;;
21089;SDS011;10703;51.020;6.128;2023-04-24T10:01:50;10.13;;;7.90;;
21089;SDS011;10703;51.020;6.128;2023-04-24T10:04:20;8.57;;;7.43;;
21089;SDS011;10703;51.020;6.128;2023-04-24T10:06:49;9.10;;;6.90;;
21089;SDS011;10703;51.020;6.128;2023-04-24T10:09:18;10.40;;;7.23;;
21089;SDS011;10703;51.020;6.128;2023-04-24T10:11:46;6.37;;;5.90;;
21089;SDS011;10703;51.020;6.128;2023-04-24T10:14:15;8.70;;;6.93;;
21089;SDS011;10703;51.020;6.128;2023-04-24T10:16:44;6.80;;;6.20;;
21089;SDS011;10703;51.020;6.128;2023-04-24T10:19:13;7.53;;;6.90;;
21089;SDS011;10703;51.020;6.128;2023-04-24T10:21:41;7.80;;;7.00;;
21089;SDS011;10703;51.020;6.128;2023-04-24T10:24:16;6.20;;;5.60;;
21089;SDS011;10703;51.020;6.128;2023-04-24T10:26:45;10.50;;;7.37;;
21089;SDS011;10703;51.020;6.128;2023-04-24T10:29:14;7.40;;;6.63;;
21089;SDS011;10703;51.020;6.128;2023-04-24T10:31:44;9.30;;;7.07;;
21089;SDS011;10703;51.020;6.128;2023-04-24T10:34:13;8.83;;;6.13;;
21089;SDS011;10703;51.020;6.128;2023-04-24T10:36:43;7.03;;;6.43;;
21089;SDS011;10703;51.020;6.128;2023-04-24T10:39:14;9.83;;;7.03;;
21089;SDS011;10703;51.020;6.128;2023-04-24T10:41:41;7.60;;;6.77;;
21089;SDS011;10703;51.020;6.128;2023-04-24T10:44:09;7.80;;;6.07;;
21089;SDS011;10703;51.020;6.128;2023-04-24T10:46:36;9.67;;;6.70;;
21089;SDS011;10703;51.020;6.128;2023-04-24T10:49:07;14.90;;;7.50;;
21089;SDS011;10703;51.020;6.128;2023-04-24T10:51:50;11.67;;;7.03;;
21089;SDS011;10703;51.020;6.128;2023-04-24T10:59:45;12.23;;;7.60;;
21089;SDS011;10703;51.020;6.128;2023-04-24T11:02:16;9.03;;;7.63;;
21089;SDS011;10703;51.020;6.128;2023-04-24T11:04:44;8.80;;;7.63;;
21089;SDS011;10703;51.020;6.128;2023-04-24T11:07:11;7.57;;;6.87;;
21089;SDS011;10703;51.020;6.128;2023-04-24T11:09:39;8.40;;;6.70;;
21089;SDS011;10703;51.020;6.128;2023-04-24T11:12:09;6.83;;;6.23;;
21089;SDS011;10703;51.020;6.128;2023-04-24T11:17:29;7.50;;;6.80;;
21089;SDS011;10703;51.020;6.128;2023-04-24T11:20:04;12.00;;;7.13;;
21089;SDS011;10703;51.020;6.128;2023-04-24T11:22:53;8.43;;;6.83;;
21089;SDS011;10703;51.020;6.128;2023-04-24T11:25:21;11.23;;;7.27;;
21089;SDS011;10703;51.020;6.128;2023-04-24T11:27:48;10.40;;;6.87;;
21089;SDS011;10703;51.020;6.128;2023-04-24T11:30:19;9.27;;;6.23;;
21089;SDS011;10703;51.020;6.128;2023-04-24T11:32:52;12.43;;;7.50;;
21089;SDS011;10703;51.020;6.128;2023-04-24T11:35:20;13.17;;;6.77;;
21089;SDS011;10703;51.020;6.128;2023-04-24T11:37:53;10.40;;;6.23;;
21089;SDS011;10703;51.020;6.128;2023-04-24T11:40:23;6.57;;;5.97;;
21089;SDS011;10703;51.020;6.128;2023-04-24T11:42:51;7.67;;;6.43;;
21089;SDS011;10703;51.020;6.128;2023-04-24T11:45:22;6.87;;;6.17;;
21089;SDS011;10703;51.020;6.128;2023-04-24T11:47:51;11.50;;;6.93;;
21089;SDS011;10703;51.020;6.128;2023-04-24T11:50:18;7.43;;;6.40;;
21089;SDS011;10703;51.020;6.128;2023-04-24T11:52:48;9.57;;;6.90;;
21089;SDS011;10703;51.020;6.128;2023-04-24T11:57:42;7.20;;;6.40;;
21089;SDS011;10703;51.020;6.128;2023-04-24T12:00:17;8.93;;;7.27;;
21089;SDS011;10703;51.020;6.128;2023-04-24T12:02:48;10.57;;;7.40;;
21089;SDS011;10703;51.020;6.128;2023-04-24T12:07:48;12.83;;;7.20;;
21089;SDS011;10703;51.020;6.128;2023-04-24T12:10:19;6.53;;;5.70;;
21089;SDS011;10703;51.020;6.128;2023-04-24T12:12:50;11.90;;;7.80;;
21089;SDS011;10703;51.020;6.128;2023-04-24T12:15:18;7.07;;;6.43;;
21089;SDS011;10703;51.020;6.128;2023-04-24T12:17:45;13.97;;;7.20;;
21089;SDS011;10703;51.020;6.128;2023-04-24T12:20:13;8.60;;;5.93;;
21089;SDS011;10703;51.020;6.128;2023-04-24T12:25:14;7.93;;;6.60;;
21089;SDS011;10703;51.020;6.128;2023-04-24T12:27:43;10.37;;;6.47;;
21089;SDS011;10703;51.020;6.128;2023-04-24T12:30:18;8.83;;;6.33;;
21089;SDS011;10703;51.020;6.128;2023-04-24T12:32:48;7.27;;;6.57;;
21089;SDS011;10703;51.020;6.128;2023-04-24T12:35:19;8.00;;;6.80;;
21089;SDS011;10703;51.020;6.128;2023-04-24T12:37:47;11.53;;;5.80;;
21089;SDS011;10703;51.020;6.128;2023-04-24T12:40:16;8.90;;;5.97;;
21089;SDS011;10703;51.020;6.128;2023-04-24T12:42:50;7.60;;;5.87;;
21089;SDS011;10703;51.020;6.128;2023-04-24T12:45:17;7.10;;;6.40;;
21089;SDS011;10703;51.020;6.128;2023-04-24T12:47:45;10.17;;;6.40;;
21089;SDS011;10703;51.020;6.128;2023-04-24T12:50:13;8.17;;;6.93;;
21089;SDS011;10703;51.020;6.128;2023-04-24T12:52:41;10.77;;;7.13;;
21089;SDS011;10703;51.020;6.128;2023-04-24T12:55:09;7.00;;;6.17;;
21089;SDS011;10703;51.020;6.128;2023-04-24T12:57:36;8.00;;;6.93;;
21089;SDS011;10703;51.020;6.128;2023-04-24T13:00:04;11.77;;;7.23;;
21089;SDS011;10703;51.020;6.128;2023-04-24T13:02:32;8.13;;;7.23;;
21089;SDS011;10703;51.020;6.128;2023-04-24T13:05:00;8.80;;;6.73;;
21089;SDS011;10703;51.020;6.128;2023-04-24T13:07:27;9.17;;;6.83;;
21089;SDS011;10703;51.020;6.128;2023-04-24T13:09:54;8.30;;;7.50;;
21089;SDS011;10703;51.020;6.128;2023-04-24T13:12:22;7.00;;;6.50;;
21089;SDS011;10703;51.020;6.128;2023-04-24T13:14:49;8.37;;;6.73;;
21089;SDS011;10703;51.020;6.128;2023-04-24T13:17:16;7.60;;;6.90;;
21089;SDS011;10703;51.020;6.128;2023-04-24T13:19:43;6.70;;;5.90;;
21089;SDS011;10703;51.020;6.128;2023-04-24T13:22:11;7.53;;;6.80;;
21089;SDS011;10703;51.020;6.128;2023-04-24T13:24:38;6.90;;;6.30;;
21089;SDS011;10703;51.020;6.128;2023-04-24T13:27:06;6.23;;;5.73;;
21089;SDS011;10703;51.020;6.128;2023-04-24T13:29:34;8.73;;;6.50;;
21089;SDS011;10703;51.020;6.128;2023-04-24T13:32:01;7.20;;;6.60;;
21089;SDS011;10703;51.020;6.128;2023-04-24T13:34:28;6.33;;;5.77;;
21089;SDS011;10703;51.020;6.128;2023-04-24T13:36:55;7.20;;;6.50;;
21089;SDS011;10703;51.020;6.128;2023-04-24T13:39:24;8.83;;;6.67;;
21089;SDS011;10703;51.020;6.128;2023-04-24T13:41:52;10.70;;;7.57;;
21089;SDS011;10703;51.020;6.128;2023-04-24T13:44:19;8.60;;;7.17;;
21089;SDS011;10703;51.020;6.128;2023-04-24T13:46:47;8.73;;;6.97;;
21089;SDS011;10703;51.020;6.128;2023-04-24T13:49:15;9.07;;;6.70;;
21089;SDS011;10703;51.020;6.128;2023-04-24T13:51:43;7.87;;;6.90;;
21089;SDS011;10703;51.020;6.128;2023-04-24T13:54:10;6.97;;;6.37;;
21089;SDS011;10703;51.020;6.128;2023-04-24T13:56:37;7.87;;;7.07;;
21089;SDS011;10703;51.020;6.128;2023-04-24T13:59:05;14.00;;;7.47;;
21089;SDS011;10703;51.020;6.128;2023-04-24T14:01:32;9.10;;;6.93;;
21089;SDS011;10703;51.020;6.128;2023-04-24T14:03:59;8.50;;;6.93;;
21089;SDS011;10703;51.020;6.128;2023-04-24T14:06:26;9.20;;;6.13;;
21089;SDS011;10703;51.020;6.128;2023-04-24T14:08:53;12.10;;;6.20;;
21089;SDS011;10703;51.020;6.128;2023-04-24T14:11:19;9.57;;;6.13;;
21089;SDS011;10703;51.020;6.128;2023-04-24T14:13:47;7.23;;;5.80;;
21089;SDS011;10703;51.020;6.128;2023-04-24T14:16:14;8.20;;;5.97;;
21089;SDS011;10703;51.020;6.128;2023-04-24T14:18:41;8.10;;;5.93;;
21089;SDS011;10703;51.020;6.128;2023-04-24T14:21:08;6.97;;;6.10;;
21089;SDS011;10703;51.020;6.128;2023-04-24T14:23:34;6.97;;;6.23;;
21089;SDS011;10703;51.020;6.128;2023-04-24T14:26:01;9.50;;;5.53;;
21089;SDS011;10703;51.020;6.128;2023-04-24T14:28:27;8.00;;;6.53;;
21089;SDS011;10703;51.020;6.128;2023-04-24T14:30:54;7.13;;;5.63;;
21089;SDS011;10703;51.020;6.128;2023-04-24T14:33:20;7.50;;;5.83;;
21089;SDS011;10703;51.020;6.128;2023-04-24T14:35:47;6.00;;;5.40;;
21089;SDS011;10703;51.020;6.128;2023-04-24T14:38:14;6.73;;;6.00;;
21089;SDS011;10703;51.020;6.128;2023-04-24T14:40:41;7.20;;;5.53;;
21089;SDS011;10703;51.020;6.128;2023-04-24T14:43:28;6.30;;;5.43;;
21089;SDS011;10703;51.020;6.128;2023-04-24T14:45:54;5.57;;;4.90;;
21089;SDS011;10703;51.020;6.128;2023-04-24T14:48:21;5.70;;;5.20;;
21089;SDS011;10703;51.020;6.128;2023-04-24T14:50:47;5.27;;;4.77;;
21089;SDS011;10703;51.020;6.128;2023-04-24T14:53:14;7.80;;;5.63;;
21089;SDS011;10703;51.020;6.128;2023-04-24T14:55:41;6.37;;;5.40;;
21089;SDS011;10703;51.020;6.128;2023-04-24T14:58:07;6.80;;;5.40;;
21089;SDS011;10703;51.020;6.128;2023-04-24T15:00:34;6.00;;;5.33;;